Time;durP1;ratioP1;P1;durP2;ratioP2;P2;SDS_P1;SDS_P2;PMS_P1;PMS_P2;Temp;Humidity;BMP_temperature;BMP_pressure;BME280_temperature;BME280_humidity;BME280_pressure;Samples;Min_cycle;Max_cycle;Signal;HPM_P1;HPM_P2
2022/06/24 00:00:15;;;;;;;3.95;0.95;;;;;;;16.39;88.77;95639.09;2041281;29;20056;-69
2022/06/24 00:01:16;;;;;;;6.50;1.25;;;;;;;16.28;89.59;95642.50;2033138;29;20048;-68
2022/06/24 00:02:17;;;;;;;6.47;1.40;;;;;;;16.32;87.99;95638.69;2033057;29;20092;-69
2022/06/24 00:03:19;;;;;;;6.68;1.52;;;;;;;16.28;88.72;95635.47;2041513;29;20060;-69
2022/06/24 00:04:22;;;;;;;6.50;1.30;;;;;;;16.15;90.30;95641.78;2048366;29;20413;-68
2022/06/24 00:05:23;;;;;;;4.80;1.60;;;;;;;16.11;90.38;95643.75;2033893;29;20052;-69
2022/06/24 00:06:29;;;;;;;5.45;1.60;;;;;;;16.09;90.48;95637.78;2033957;29;20078;-68
2022/06/24 00:07:31;;;;;;;8.05;1.52;;;;;;;16.17;90.93;95639.84;2033620;29;20487;-69
2022/06/24 00:08:32;;;;;;;5.13;1.63;;;;;;;16.14;90.57;95638.28;2039981;29;20483;-68
2022/06/24 00:09:34;;;;;;;8.50;1.30;;;;;;;16.10;91.84;95640.31;2040770;29;20054;-69
2022/06/24 00:10:36;;;;;;;4.53;1.38;;;;;;;16.07;91.15;95645.78;2040690;29;20050;-69
2022/06/24 00:11:37;;;;;;;5.50;1.52;;;;;;;16.15;91.36;95645.22;2040568;29;20043;-69
2022/06/24 00:12:38;;;;;;;5.38;1.50;;;;;;;16.10;90.50;95640.31;2041200;29;20051;-67
2022/06/24 00:13:39;;;;;;;3.08;1.10;;;;;;;16.13;91.49;95643.66;2055014;23;20102;-59
2022/06/24 00:14:42;;;;;;;4.72;1.02;;;;;;;16.15;91.00;95644.38;2064426;28;20080;-58
2022/06/24 00:15:43;;;;;;;3.63;1.63;;;;;;;16.09;91.10;95638.66;2065015;28;20050;-57
2022/06/24 00:16:57;;;;;;;6.75;1.75;;;;;;;16.06;91.68;95636.28;2053907;28;20043;-57
2022/06/24 00:18:18;;;;;;;3.92;1.23;;;;;;;16.09;91.08;95640.41;2057928;28;20039;-57
2022/06/24 00:19:20;;;;;;;4.35;1.50;;;;;;;16.01;91.73;95638.41;2064774;28;20042;-57
2022/06/24 00:20:21;;;;;;;3.67;1.35;;;;;;;16.04;91.82;95637.34;2056592;28;20050;-58
2022/06/24 00:21:22;;;;;;;5.55;1.77;;;;;;;16.02;91.81;95642.69;2049593;28;20473;-57
2022/06/24 00:22:25;;;;;;;3.75;1.48;;;;;;;16.02;91.63;95636.59;2056659;28;20039;-57
2022/06/24 00:23:26;;;;;;;4.28;1.40;;;;;;;16.04;91.63;95634.72;2072286;28;20054;-57
2022/06/24 00:24:29;;;;;;;4.78;1.50;;;;;;;16.02;91.91;95634.81;2067845;28;20058;-58
2022/06/24 00:25:30;;;;;;;4.25;1.40;;;;;;;16.04;91.26;95632.09;2057074;28;20049;-57
2022/06/24 00:26:46;;;;;;;3.17;1.23;;;;;;;15.98;91.97;95633.34;2057209;28;20443;-57
2022/06/24 00:28:09;;;;;;;4.72;1.63;;;;;;;16.00;92.56;95636.72;2046985;29;20062;-57
2022/06/24 00:29:15;;;;;;;5.88;1.73;;;;;;;15.99;92.31;95648.16;2061862;28;20046;-59
2022/06/24 00:30:16;;;;;;;5.55;1.50;;;;;;;15.98;91.96;95641.22;2074398;28;20061;-59
2022/06/24 00:31:18;;;;;;;5.88;1.52;;;;;;;15.98;91.94;95641.22;2075957;28;20048;-58
2022/06/24 00:32:34;;;;;;;6.10;1.38;;;;;;;15.95;91.81;95644.06;2064546;28;20050;-57
2022/06/24 00:33:36;;;;;;;4.28;1.58;;;;;;;15.92;92.88;95641.69;2054331;28;20050;-58
2022/06/24 00:34:38;;;;;;;6.55;1.35;;;;;;;15.92;91.97;95646.09;2057324;28;20050;-58
2022/06/24 00:35:42;;;;;;;8.38;1.98;;;;;;;15.94;92.77;95650.25;2058393;28;20420;-59
2022/06/24 00:36:43;;;;;;;3.90;1.48;;;;;;;15.95;92.55;95651.09;2065299;28;20053;-58
2022/06/24 00:37:44;;;;;;;4.05;1.30;;;;;;;15.93;93.37;95645.13;2041220;29;20152;-59
2022/06/24 00:38:50;;;;;;;6.60;1.42;;;;;;;15.98;93.10;95646.47;2040485;28;20055;-58
2022/06/24 00:39:53;;;;;;;6.07;1.55;;;;;;;16.02;92.52;95642.69;2056465;28;20047;-58
2022/06/24 00:40:56;;;;;;;6.03;1.40;;;;;;;15.94;92.17;95644.19;2040760;28;20047;-58
2022/06/24 00:41:57;;;;;;;6.80;1.67;;;;;;;15.92;93.28;95641.69;2057338;28;20046;-58
2022/06/24 00:42:59;;;;;;;5.43;1.50;;;;;;;15.93;93.07;95651.22;2056653;28;20051;-58
2022/06/24 00:44:00;;;;;;;3.67;1.25;;;;;;;15.94;92.90;95646.81;2057210;28;20062;-59
2022/06/24 00:45:07;;;;;;;4.20;1.30;;;;;;;15.91;92.88;95650.50;2057038;28;20099;-59
2022/06/24 00:46:26;;;;;;;4.28;1.45;;;;;;;15.94;93.12;95665.97;2065846;28;20615;-59
2022/06/24 00:47:28;;;;;;;3.90;1.70;;;;;;;15.90;93.41;95661.91;2061662;28;20054;-58
2022/06/24 00:48:30;;;;;;;5.20;1.30;;;;;;;15.93;93.21;95666.06;2056342;28;20058;-58
2022/06/24 00:49:31;;;;;;;5.88;1.80;;;;;;;16.00;93.24;95669.94;2041058;28;20116;-57
2022/06/24 00:50:33;;;;;;;6.30;1.40;;;;;;;16.00;93.10;95678.59;2048997;28;20039;-58
2022/06/24 00:51:37;;;;;;;3.05;1.52;;;;;;;15.97;92.96;95678.84;2064867;28;20504;-59
2022/06/24 00:52:38;;;;;;;4.38;1.70;;;;;;;15.95;92.99;95678.09;2048142;29;20035;-60
2022/06/24 00:53:53;;;;;;;5.57;1.60;;;;;;;15.94;92.27;95678.25;2034052;29;20056;-58
2022/06/24 00:54:54;;;;;;;4.25;1.30;;;;;;;15.93;92.85;95679.16;2041132;29;20051;-58
2022/06/24 00:55:55;;;;;;;5.30;1.63;;;;;;;15.81;92.74;95678.28;2038074;29;20070;-58
2022/06/24 00:56:57;;;;;;;6.75;1.60;;;;;;;15.82;93.18;95678.19;2040023;28;20055;-59
2022/06/24 00:57:59;;;;;;;4.30;1.45;;;;;;;15.79;93.26;95677.56;2055870;28;20062;-58
2022/06/24 00:59:02;;;;;;;6.18;2.05;;;;;;;15.80;93.40;95666.16;2049053;28;20043;-58
2022/06/24 01:00:04;;;;;;;3.08;1.27;;;;;;;15.78;93.49;95676.75;2064756;28;20415;-58
2022/06/24 01:01:05;;;;;;;5.70;1.50;;;;;;;15.79;93.63;95678.41;2056433;28;20047;-58
2022/06/24 01:02:07;;;;;;;8.38;1.77;;;;;;;15.81;93.77;95681.75;2048529;29;20054;-58
2022/06/24 01:03:08;;;;;;;3.05;1.13;;;;;;;15.75;93.81;95681.38;2048175;29;20047;-58
2022/06/24 01:04:11;;;;;;;4.13;1.70;;;;;;;15.78;93.35;95681.97;2032751;29;20055;-59
2022/06/24 01:05:12;;;;;;;3.88;1.40;;;;;;;15.77;94.20;95676.84;2040957;29;20055;-57
2022/06/24 01:06:13;;;;;;;4.05;1.77;;;;;;;15.82;94.06;95679.97;2048005;28;20047;-58
2022/06/24 01:07:14;;;;;;;9.50;2.03;;;;;;;15.80;93.74;95685.31;2040541;29;20054;-59
2022/06/24 01:08:16;;;;;;;5.15;1.58;;;;;;;15.77;93.19;95676.84;2024394;29;20056;-59
2022/06/24 01:09:19;;;;;;;4.30;1.60;;;;;;;15.74;93.40;95675.28;2049670;28;20054;-58
2022/06/24 01:10:21;;;;;;;5.03;1.58;;;;;;;15.78;93.04;95676.75;2064345;28;20051;-59
2022/06/24 01:11:27;;;;;;;7.25;1.98;;;;;;;15.74;94.37;95669.22;2048396;28;20039;-60
2022/06/24 01:12:31;;;;;;;6.68;1.58;;;;;;;15.74;94.66;95680.50;2049560;28;20043;-58
2022/06/24 01:13:32;;;;;;;4.57;1.75;;;;;;;15.80;93.54;95674.03;2040453;29;20457;-58
2022/06/24 01:14:33;;;;;;;5.65;1.70;;;;;;;15.83;93.31;95668.56;2040438;28;20050;-59
2022/06/24 01:15:35;;;;;;;5.07;1.88;;;;;;;15.80;92.65;95663.56;2056731;28;20058;-58
2022/06/24 01:16:36;;;;;;;3.20;1.58;;;;;;;15.82;93.08;95667.72;2048858;29;20047;-57
2022/06/24 01:17:37;;;;;;;4.85;1.58;;;;;;;15.70;93.24;95667.78;2040943;28;20449;-58
2022/06/24 01:18:38;;;;;;;6.22;1.60;;;;;;;15.69;92.92;95668.72;2064356;28;20598;-57
2022/06/24 01:19:40;;;;;;;8.15;1.88;;;;;;;15.66;93.15;95662.75;2064373;28;20054;-58
2022/06/24 01:20:41;;;;;;;4.50;1.70;;;;;;;15.64;93.56;95662.00;2040778;29;20066;-58
2022/06/24 01:21:44;;;;;;;4.90;1.75;;;;;;;15.62;93.90;95661.28;2040579;29;20103;-58
2022/06/24 01:22:45;;;;;;;5.95;1.70;;;;;;;15.71;93.96;95659.78;2041068;28;20047;-58
2022/06/24 01:23:46;;;;;;;10.57;2.13;;;;;;;15.66;93.85;95662.75;2048703;29;20050;-57
2022/06/24 01:24:48;;;;;;;4.10;1.70;;;;;;;15.65;94.25;95661.06;2047957;29;20054;-59
2022/06/24 01:25:49;;;;;;;5.63;1.50;;;;;;;15.62;94.08;95663.91;2048753;28;20445;-58
2022/06/24 01:26:54;;;;;;;6.70;1.73;;;;;;;15.70;93.50;95652.91;2048618;28;20051;-58
2022/06/24 01:27:55;;;;;;;6.75;1.95;;;;;;;15.63;93.82;95656.88;2048336;28;20047;-58
2022/06/24 01:28:57;;;;;;;3.28;1.63;;;;;;;15.58;94.28;95654.63;2048348;28;20078;-58
2022/06/24 01:29:58;;;;;;;5.22;1.77;;;;;;;15.64;93.90;95648.09;2048515;29;20051;-60
2022/06/24 01:30:59;;;;;;;4.55;1.55;;;;;;;15.69;93.90;95656.47;2048725;29;20058;-57
2022/06/24 01:32:00;;;;;;;5.65;1.80;;;;;;;15.78;93.76;95650.56;2040404;28;20058;-58
2022/06/24 01:33:01;;;;;;;4.22;1.55;;;;;;;15.66;93.99;95644.41;2063794;28;20504;-59
2022/06/24 01:34:03;;;;;;;5.47;1.83;;;;;;;15.65;93.90;95641.91;2064595;28;20113;-58
2022/06/24 01:35:04;;;;;;;8.13;1.80;;;;;;;15.58;93.49;95644.13;2036599;29;20740;-59
2022/06/24 01:36:06;;;;;;;7.25;1.80;;;;;;;15.59;94.01;95640.56;2025479;29;20056;-58
2022/06/24 01:37:07;;;;;;;6.40;1.70;;;;;;;15.58;94.22;95645.91;2048453;28;20043;-58
2022/06/24 01:38:08;;;;;;;6.10;1.50;;;;;;;15.60;94.28;95626.53;2047937;28;20039;-60
2022/06/24 01:39:10;;;;;;;8.32;2.00;;;;;;;15.60;94.39;95631.75;2055808;28;20054;-58
2022/06/24 01:40:11;;;;;;;4.47;1.95;;;;;;;15.59;94.83;95639.75;2048742;28;20130;-57
2022/06/24 01:41:12;;;;;;;4.70;1.95;;;;;;;15.58;94.83;95624.97;2056835;28;20058;-59
2022/06/24 01:42:14;;;;;;;8.35;2.25;;;;;;;15.56;94.86;95625.09;2063790;28;20050;-58
2022/06/24 01:43:15;;;;;;;4.22;1.75;;;;;;;15.59;95.20;95631.88;2055782;28;20531;-58
2022/06/24 01:44:17;;;;;;;6.57;1.90;;;;;;;15.50;94.86;95620.28;2064104;28;20058;-59
2022/06/24 01:45:18;;;;;;;4.85;1.90;;;;;;;15.50;95.13;95633.38;2040326;29;20051;-59
2022/06/24 01:46:19;;;;;;;7.30;2.28;;;;;;;15.52;95.32;95628.03;2039760;29;20051;-58
2022/06/24 01:47:20;;;;;;;5.00;2.10;;;;;;;15.51;95.00;95631.59;2048529;28;20099;-58
2022/06/24 01:48:22;;;;;;;7.03;1.92;;;;;;;15.50;95.49;95620.28;2047930;29;20047;-58
2022/06/24 01:49:23;;;;;;;7.60;1.98;;;;;;;15.51;95.19;95632.44;2040637;29;20632;-59
2022/06/24 01:50:24;;;;;;;8.43;2.20;;;;;;;15.53;94.97;95633.16;2048386;28;20059;-58
2022/06/24 01:51:25;;;;;;;8.80;2.13;;;;;;;15.53;94.52;95630.56;2055664;28;20053;-58
2022/06/24 01:52:26;;;;;;;7.00;2.17;;;;;;;15.58;95.30;95628.44;2048167;28;20425;-58
2022/06/24 01:53:28;;;;;;;5.40;2.13;;;;;;;15.56;94.99;95630.31;2052199;28;20089;-58
2022/06/24 01:54:29;;;;;;;7.47;1.90;;;;;;;15.61;95.42;95627.34;2055860;28;20054;-58
2022/06/24 01:55:30;;;;;;;5.43;1.83;;;;;;;15.57;95.06;95637.22;2056330;28;20051;-58
2022/06/24 01:56:31;;;;;;;5.30;1.67;;;;;;;15.54;94.42;95624.38;2056692;28;20440;-59
2022/06/24 01:57:32;;;;;;;9.63;2.20;;;;;;;15.58;94.51;95640.66;2064830;28;20050;-58
2022/06/24 01:58:34;;;;;;;7.57;2.08;;;;;;;15.57;95.05;95624.13;2063935;28;20046;-59
2022/06/24 01:59:35;;;;;;;9.05;1.92;;;;;;;15.60;94.57;95628.31;2055534;28;20049;-57
2022/06/24 02:00:36;;;;;;;5.22;1.77;;;;;;;15.65;94.68;95621.78;2032840;29;20051;-58
2022/06/24 02:01:38;;;;;;;7.28;2.20;;;;;;;15.61;94.94;95628.22;2061887;28;20085;-59
2022/06/24 02:02:39;;;;;;;7.43;2.10;;;;;;;15.63;94.59;95621.06;2056318;28;20124;-59
2022/06/24 02:03:40;;;;;;;3.88;1.88;;;;;;;15.58;95.14;95633.69;2032773;29;20125;-58
2022/06/24 02:04:41;;;;;;;6.22;1.70;;;;;;;15.53;94.85;95638.41;2048388;28;20680;-58
2022/06/24 02:05:43;;;;;;;6.32;2.05;;;;;;;15.51;94.37;95634.22;2040904;28;20048;-59
2022/06/24 02:06:44;;;;;;;6.47;1.77;;;;;;;15.61;94.40;95635.19;2033180;29;20466;-58
2022/06/24 02:07:46;;;;;;;5.63;1.92;;;;;;;15.53;94.16;95630.56;2040929;28;20048;-58
2022/06/24 02:08:47;;;;;;;5.35;1.77;;;;;;;15.59;94.04;95631.88;2063192;28;20050;-58
2022/06/24 02:14:50;;;;;;;6.32;1.98;;;;;;;15.49;94.62;95636.94;2045723;29;20055;-57
2022/06/24 02:15:52;;;;;;;2.97;1.60;;;;;;;15.46;95.04;95628.50;2036145;29;20047;-59
2022/06/24 02:16:53;;;;;;;4.50;1.90;;;;;;;15.47;95.13;95630.97;2047914;28;20047;-59
2022/06/24 02:17:54;;;;;;;5.15;1.75;;;;;;;15.48;95.39;95631.84;2071900;28;20054;-60
2022/06/24 02:18:55;;;;;;;5.63;1.90;;;;;;;15.46;96.02;95628.50;2063746;28;20107;-58
2022/06/24 02:19:56;;;;;;;6.78;1.85;;;;;;;15.48;95.36;95627.44;2056129;28;20054;-58
2022/06/24 02:20:58;;;;;;;2.97;1.50;;;;;;;15.43;95.06;95624.31;2063429;28;20046;-58
2022/06/24 02:22:00;;;;;;;4.00;1.67;;;;;;;15.43;95.36;95621.69;2064042;28;20479;-58
2022/06/24 02:23:01;;;;;;;4.93;1.77;;;;;;;15.42;95.69;95622.63;2047987;29;20047;-59
2022/06/24 02:24:02;;;;;;;6.55;1.80;;;;;;;15.39;95.60;95623.69;2032749;29;20044;-58
2022/06/24 02:25:04;;;;;;;5.55;1.73;;;;;;;15.38;95.15;95629.03;2063226;28;20062;-58
2022/06/24 02:26:05;;;;;;;3.25;1.88;;;;;;;15.39;94.92;95625.47;2059899;28;20042;-59
2022/06/24 02:27:06;;;;;;;6.90;2.03;;;;;;;15.41;94.67;95634.03;2048851;28;20055;-58
2022/06/24 02:28:07;;;;;;;5.50;2.03;;;;;;;15.36;94.63;95626.53;2063796;28;20046;-58
2022/06/24 02:29:09;;;;;;;4.88;1.75;;;;;;;15.37;95.21;95629.97;2056185;28;20082;-57
2022/06/24 02:30:10;;;;;;;5.20;1.92;;;;;;;15.43;95.35;95635.59;2048397;29;20051;-57
2022/06/24 02:31:11;;;;;;;7.05;1.90;;;;;;;15.40;95.33;95632.38;2037156;28;20042;-58
2022/06/24 02:32:13;;;;;;;3.80;1.63;;;;;;;15.41;94.85;95628.81;2040831;28;20078;-60
2022/06/24 02:33:14;;;;;;;4.75;2.03;;;;;;;15.48;94.99;95632.66;2040033;29;20062;-59
2022/06/24 02:34:15;;;;;;;6.47;1.80;;;;;;;15.38;94.67;95623.81;2048216;28;20046;-59
2022/06/24 02:35:16;;;;;;;6.05;1.77;;;;;;;15.38;95.42;95631.66;2056456;28;20053;-58
2022/06/24 02:36:18;;;;;;;10.30;2.20;;;;;;;15.41;95.75;95634.03;2064475;28;20046;-58
2022/06/24 02:37:19;;;;;;;3.22;1.77;;;;;;;15.40;95.03;95627.97;2056009;28;20468;-58
2022/06/24 02:38:21;;;;;;;8.25;2.22;;;;;;;15.45;94.10;95627.66;2032292;29;20071;-59
2022/06/24 02:39:22;;;;;;;5.15;1.65;;;;;;;15.34;94.46;95633.66;2037948;29;20052;-60
2022/06/24 02:41:44;;;;;;;4.05;2.00;;;;;;;15.23;95.45;95638.81;2055444;28;20420;-58
2022/06/24 02:42:45;;;;;;;5.18;2.13;;;;;;;15.19;95.63;95634.75;2056579;28;20051;-60
2022/06/24 02:43:47;;;;;;;5.75;2.08;;;;;;;15.20;95.52;95642.47;2047994;28;20436;-59
2022/06/24 02:44:48;;;;;;;7.32;1.75;;;;;;;15.22;95.16;95634.53;2048555;28;20054;-57
2022/06/24 02:45:52;;;;;;;6.22;1.58;;;;;;;15.21;95.39;95633.69;2048333;28;20583;-58
2022/06/24 02:46:53;;;;;;;4.00;1.92;;;;;;;15.18;95.76;95631.31;2056069;28;20042;-60
2022/06/24 02:47:54;;;;;;;4.95;1.88;;;;;;;15.16;95.78;95630.56;2040289;28;20047;-58
2022/06/24 02:48:56;;;;;;;5.38;1.70;;;;;;;15.17;95.66;95634.84;2039310;28;20051;-59
2022/06/24 02:49:57;;;;;;;5.13;1.80;;;;;;;15.15;95.16;95628.06;2048090;29;20066;-58
2022/06/24 02:51:00;;;;;;;5.88;1.70;;;;;;;15.22;95.05;95629.31;2047331;28;20058;-58
2022/06/24 02:52:01;;;;;;;6.95;1.75;;;;;;;15.18;94.81;95626.06;2056146;28;20043;-58
2022/06/24 02:53:02;;;;;;;6.47;2.00;;;;;;;15.17;94.65;95629.63;2048015;29;20056;-58
2022/06/24 02:54:03;;;;;;;3.83;1.40;;;;;;;15.13;94.89;95628.19;2039965;29;20043;-59
2022/06/24 02:55:05;;;;;;;7.72;2.63;;;;;;;15.10;95.35;95628.41;2039661;28;20059;-59
2022/06/24 02:56:07;;;;;;;5.22;1.98;;;;;;;15.18;95.48;95630.44;2055563;28;20417;-60
2022/06/24 02:57:09;;;;;;;3.72;2.05;;;;;;;15.13;95.63;95635.16;2063481;28;20077;-58
2022/06/24 02:58:10;;;;;;;4.97;2.10;;;;;;;15.12;95.93;95636.13;2056021;28;20046;-59
2022/06/24 02:59:11;;;;;;;6.35;1.98;;;;;;;15.11;95.47;95637.91;2049881;28;20071;-58
2022/06/24 03:00:13;;;;;;;4.72;1.80;;;;;;;15.05;95.77;95635.75;2056827;28;20047;-58
2022/06/24 03:01:14;;;;;;;4.47;1.92;;;;;;;15.14;95.98;95629.00;2042189;29;20054;-59
2022/06/24 03:02:15;;;;;;;5.72;1.75;;;;;;;15.11;95.77;95624.84;2049769;28;20054;-59
2022/06/24 03:03:19;;;;;;;5.57;2.00;;;;;;;15.09;96.04;95623.28;2057609;28;20539;-59
2022/06/24 03:04:20;;;;;;;6.55;1.83;;;;;;;15.11;95.45;95626.63;2057533;28;20251;-58
2022/06/24 03:05:21;;;;;;;5.20;1.77;;;;;;;15.08;95.56;95622.44;2057229;28;20531;-58
2022/06/24 03:06:23;;;;;;;4.82;2.35;;;;;;;15.12;95.38;95630.91;2048208;28;20047;-60
2022/06/24 03:07:24;;;;;;;9.77;2.05;;;;;;;15.06;96.02;95629.56;2049838;29;20047;-57
2022/06/24 03:08:26;;;;;;;3.42;1.70;;;;;;;15.11;96.10;95635.28;2049401;28;20055;-58
2022/06/24 03:09:27;;;;;;;4.65;1.95;;;;;;;15.09;95.61;95631.13;2057319;28;20508;-59
2022/06/24 03:10:28;;;;;;;5.80;2.10;;;;;;;15.10;95.52;95632.78;2058103;28;20046;-58
2022/06/24 03:11:29;;;;;;;4.55;1.92;;;;;;;15.15;95.43;95636.72;2062371;28;20038;-58
2022/06/24 03:12:31;;;;;;;6.57;2.10;;;;;;;15.12;95.63;95633.50;2057477;28;20154;-59
2022/06/24 03:13:32;;;;;;;6.45;1.95;;;;;;;15.15;95.37;95638.50;2049050;29;20416;-58
2022/06/24 03:14:33;;;;;;;4.60;1.92;;;;;;;15.15;95.75;95641.97;2057105;28;20051;-59
2022/06/24 03:15:34;;;;;;;6.22;2.20;;;;;;;15.13;95.51;95637.78;2065717;28;20046;-58
2022/06/24 03:16:36;;;;;;;7.75;2.10;;;;;;;15.15;95.65;95635.91;2050243;28;20047;-58
2022/06/24 03:17:38;;;;;;;5.90;2.47;;;;;;;15.12;95.78;95641.34;2057547;28;20521;-60
2022/06/24 03:18:39;;;;;;;5.38;2.30;;;;;;;15.13;95.44;95633.41;2057435;28;20417;-59
2022/06/24 03:19:40;;;;;;;4.05;1.70;;;;;;;15.18;95.24;95641.78;2049051;28;20055;-58
2022/06/24 03:20:41;;;;;;;4.30;2.08;;;;;;;15.19;95.51;95639.97;2065482;28;20049;-58
2022/06/24 03:21:43;;;;;;;5.97;2.15;;;;;;;15.21;95.20;95635.50;2072376;28;20045;-59
2022/06/24 03:22:44;;;;;;;5.03;2.30;;;;;;;15.17;94.98;95639.25;2058334;28;20051;-59
2022/06/24 03:23:45;;;;;;;6.82;2.15;;;;;;;15.16;94.79;95643.66;2065275;28;20049;-59
2022/06/24 03:24:46;;;;;;;5.43;2.22;;;;;;;15.24;94.87;95634.44;2065058;28;20046;-59
2022/06/24 03:25:48;;;;;;;6.55;2.05;;;;;;;15.21;95.00;95640.72;2049487;29;20441;-57
2022/06/24 03:26:49;;;;;;;5.72;2.25;;;;;;;15.22;94.63;95631.91;2049424;29;20043;-58
2022/06/24 03:27:50;;;;;;;9.18;2.08;;;;;;;15.21;94.83;95638.09;2057297;28;20111;-58
2022/06/24 03:28:51;;;;;;;10.57;2.38;;;;;;;15.22;94.77;95640.59;2056650;28;20528;-59
2022/06/24 03:29:53;;;;;;;6.60;2.47;;;;;;;15.22;95.17;95637.97;2065010;28;20046;-58
2022/06/24 03:30:54;;;;;;;8.00;2.40;;;;;;;15.26;95.17;95637.75;2041641;29;20051;-59
2022/06/24 03:31:55;;;;;;;6.47;1.90;;;;;;;15.27;95.05;95634.22;2041290;28;20063;-58
2022/06/24 03:32:56;;;;;;;5.72;2.08;;;;;;;15.31;95.32;95630.41;2041413;29;20054;-58
2022/06/24 03:33:58;;;;;;;5.38;2.25;;;;;;;15.34;94.54;95627.56;2041683;29;20048;-59
2022/06/24 03:35:00;;;;;;;4.45;2.00;;;;;;;15.36;94.33;95623.06;2065495;28;20061;-58
2022/06/24 03:36:09;;;;;;;5.15;2.25;;;;;;;15.36;94.65;95623.06;2065067;28;20050;-57
2022/06/24 03:37:10;;;;;;;5.28;2.17;;;;;;;15.31;95.32;95620.78;2049595;29;20433;-59
2022/06/24 03:38:11;;;;;;;8.15;2.47;;;;;;;15.31;94.73;95619.94;2040716;28;20441;-58
2022/06/24 03:39:12;;;;;;;5.78;2.03;;;;;;;15.38;94.31;95615.97;2049536;28;20055;-59
2022/06/24 03:40:14;;;;;;;7.13;2.55;;;;;;;15.38;94.57;95622.03;2048952;29;20055;-59
2022/06/24 03:41:15;;;;;;;7.55;2.30;;;;;;;15.38;94.55;95619.41;2057416;28;20061;-58
2022/06/24 03:42:16;;;;;;;6.20;2.65;;;;;;;15.38;95.21;95616.78;2065535;28;20050;-59
2022/06/24 03:43:18;;;;;;;6.32;2.00;;;;;;;15.40;95.59;95619.31;2065517;28;20049;-58
2022/06/24 03:44:19;;;;;;;5.20;2.45;;;;;;;15.38;95.74;95622.03;2056260;28;20058;-58
2022/06/24 03:45:21;;;;;;;6.38;2.50;;;;;;;15.37;95.09;95609.91;2049987;28;20058;-59
2022/06/24 03:46:22;;;;;;;4.85;2.30;;;;;;;15.38;94.94;95621.19;2049485;28;20043;-58
2022/06/24 03:47:23;;;;;;;4.90;2.00;;;;;;;15.38;95.48;95626.41;2050059;28;20055;-58
2022/06/24 03:48:25;;;;;;;5.53;2.22;;;;;;;15.38;95.50;95622.03;2033077;29;20533;-59
2022/06/24 03:49:26;;;;;;;9.63;2.40;;;;;;;15.44;95.65;95623.34;2026030;29;20052;-58
2022/06/24 03:50:27;;;;;;;5.70;1.90;;;;;;;15.39;95.43;95622.84;2065530;28;20061;-59
2022/06/24 03:51:28;;;;;;;8.07;2.67;;;;;;;15.39;95.17;95623.69;2073076;28;20451;-59
2022/06/24 03:52:29;;;;;;;6.18;2.35;;;;;;;15.38;95.60;95618.56;2056900;28;20062;-58
2022/06/24 03:53:31;;;;;;;5.60;2.40;;;;;;;15.38;95.53;95622.03;2050179;28;20054;-59
2022/06/24 03:54:33;;;;;;;5.72;2.08;;;;;;;15.37;95.35;95622.13;2056956;28;20058;-58
2022/06/24 03:55:34;;;;;;;9.52;2.67;;;;;;;15.41;95.49;95639.28;2065467;28;20042;-59
2022/06/24 03:56:35;;;;;;;7.82;2.15;;;;;;;15.46;95.89;95638.97;2057192;28;20436;-59
2022/06/24 03:57:37;;;;;;;6.53;2.20;;;;;;;15.44;96.01;95633.81;2049478;29;20051;-56
2022/06/24 03:58:38;;;;;;;6.40;2.40;;;;;;;15.48;95.74;95637.91;2041063;29;20059;-58
2022/06/24 03:59:39;;;;;;;5.20;2.30;;;;;;;15.52;95.51;95641.13;2056696;28;20527;-59
2022/06/24 04:00:40;;;;;;;7.88;2.33;;;;;;;15.61;95.51;95636.06;2073160;28;20054;-58
2022/06/24 04:01:42;;;;;;;7.47;2.17;;;;;;;15.69;94.78;95634.69;2063480;28;20050;-59
2022/06/24 04:02:44;;;;;;;4.85;2.05;;;;;;;15.65;93.79;95636.66;2049062;28;20047;-59
2022/06/24 04:03:45;;;;;;;6.68;2.60;;;;;;;15.66;94.16;95636.56;2057636;28;20050;-59
2022/06/24 04:04:46;;;;;;;7.72;1.85;;;;;;;15.64;93.63;95633.22;2065371;28;20050;-58
2022/06/24 04:05:47;;;;;;;5.82;2.22;;;;;;;15.67;94.29;95634.78;2049057;29;20046;-61
2022/06/24 04:06:49;;;;;;;4.78;2.03;;;;;;;15.68;94.42;95633.00;2049517;28;20062;-57
2022/06/24 04:07:50;;;;;;;4.30;1.83;;;;;;;15.65;93.83;95640.09;2041964;28;20051;-58
2022/06/24 04:08:52;;;;;;;5.40;2.10;;;;;;;15.64;95.20;95637.63;2040690;29;20051;-60
2022/06/24 04:09:54;;;;;;;3.85;1.98;;;;;;;15.65;94.29;95634.88;2063891;28;20054;-59
2022/06/24 04:10:55;;;;;;;4.80;2.05;;;;;;;15.74;93.78;95640.41;2065021;28;20038;-58
2022/06/24 04:11:56;;;;;;;4.25;1.60;;;;;;;15.71;92.56;95632.78;2049444;28;20062;-58
2022/06/24 04:12:57;;;;;;;6.07;1.95;;;;;;;15.70;92.57;95631.13;2057203;28;20050;-58
2022/06/24 04:13:59;;;;;;;4.50;1.80;;;;;;;15.74;94.53;95632.56;2057866;28;20051;-58
2022/06/24 04:16:16;;;;;;;6.10;1.80;;;;;;;15.69;94.08;95629.44;2050740;28;20047;-57
2022/06/24 04:17:18;;;;;;;3.65;1.85;;;;;;;15.78;94.32;95634.03;2048850;28;20540;-59
2022/06/24 04:18:19;;;;;;;5.13;1.92;;;;;;;15.77;94.05;95624.47;2057635;28;20051;-58
2022/06/24 04:19:20;;;;;;;6.25;2.17;;;;;;;15.73;93.03;95631.72;2056892;28;20055;-59
2022/06/24 04:20:21;;;;;;;8.20;2.40;;;;;;;15.79;93.65;95630.44;2057265;28;20602;-59
2022/06/24 04:21:22;;;;;;;5.68;2.60;;;;;;;15.76;93.74;95630.66;2056829;28;20051;-58
2022/06/24 04:22:24;;;;;;;3.65;2.03;;;;;;;15.77;93.74;95632.34;2065388;28;20054;-60
2022/06/24 04:23:25;;;;;;;6.57;2.03;;;;;;;15.76;93.30;95630.66;2063868;28;20051;-58
2022/06/24 04:24:26;;;;;;;5.82;2.08;;;;;;;15.79;94.19;95627.81;2065119;28;20046;-58
2022/06/24 04:25:27;;;;;;;3.80;1.80;;;;;;;15.79;94.22;95630.44;2064950;28;20054;-57
2022/06/24 04:26:29;;;;;;;4.63;2.05;;;;;;;15.86;94.34;95631.66;2057030;28;20420;-59
2022/06/24 04:27:30;;;;;;;7.47;2.25;;;;;;;15.88;94.28;95635.03;2056214;28;20055;-58
2022/06/24 04:28:31;;;;;;;7.68;2.30;;;;;;;15.82;93.29;95635.44;2056679;28;20106;-58
2022/06/24 04:29:32;;;;;;;8.88;2.17;;;;;;;15.76;93.66;95639.34;2057226;28;20070;-59
2022/06/24 04:30:33;;;;;;;5.20;1.73;;;;;;;15.74;93.98;95637.78;2049374;28;20564;-58
2022/06/24 04:31:34;;;;;;;6.15;1.98;;;;;;;15.77;94.23;95637.56;2056351;28;20046;-59
2022/06/24 04:32:36;;;;;;;5.97;2.28;;;;;;;15.80;93.58;95643.44;2056274;28;20050;-57
2022/06/24 04:33:38;;;;;;;5.15;2.10;;;;;;;15.86;93.76;95637.72;2047283;28;20039;-58
2022/06/24 04:34:39;;;;;;;6.95;1.95;;;;;;;15.86;92.86;95636.91;2056755;28;20460;-59
2022/06/24 04:35:41;;;;;;;5.05;2.35;;;;;;;15.93;92.78;95640.75;2064618;28;20053;-59
2022/06/24 04:36:42;;;;;;;6.35;2.08;;;;;;;15.91;93.53;95632.16;2057195;28;20050;-58
2022/06/24 04:37:43;;;;;;;4.47;1.98;;;;;;;15.95;93.21;95636.22;2048842;29;20114;-59
2022/06/24 04:38:44;;;;;;;8.82;2.22;;;;;;;15.88;91.48;95635.03;2048334;29;20058;-60
2022/06/24 04:39:46;;;;;;;6.05;1.83;;;;;;;15.91;91.20;95644.44;2052750;28;20043;-59
2022/06/24 04:40:47;;;;;;;6.53;1.98;;;;;;;15.98;90.46;95640.38;2055923;28;20050;-59
2022/06/24 04:41:48;;;;;;;7.07;1.90;;;;;;;16.00;92.49;95641.13;2056712;28;20154;-58
2022/06/24 04:42:49;;;;;;;8.68;2.20;;;;;;;16.09;91.98;95640.41;2048562;29;20050;-57
2022/06/24 04:43:50;;;;;;;5.65;1.90;;;;;;;16.01;90.96;95642.78;2048933;29;20054;-58
2022/06/24 04:44:52;;;;;;;7.80;2.10;;;;;;;16.05;90.69;95636.38;2048237;28;20069;-60
2022/06/24 04:45:53;;;;;;;6.53;1.90;;;;;;;16.07;92.22;95634.47;2056700;28;20058;-61
2022/06/24 04:46:54;;;;;;;6.80;2.42;;;;;;;16.12;91.97;95634.97;2043096;29;20095;-58
2022/06/24 04:47:55;;;;;;;8.15;2.15;;;;;;;16.07;91.19;95635.31;2040689;29;20055;-58
2022/06/24 04:48:56;;;;;;;7.72;2.10;;;;;;;16.01;91.18;95638.41;2055725;28;20054;-59
2022/06/24 04:49:57;;;;;;;4.00;1.95;;;;;;;16.05;90.49;95637.19;2064665;28;20050;-60
2022/06/24 04:50:59;;;;;;;7.05;1.98;;;;;;;16.01;90.59;95633.16;2065254;28;20054;-58
2022/06/24 04:52:00;;;;;;;4.55;2.15;;;;;;;16.02;90.23;95642.69;2065514;28;20421;-59
2022/06/24 04:53:01;;;;;;;4.95;2.03;;;;;;;16.08;90.00;95636.97;2056883;28;20567;-58
2022/06/24 04:54:02;;;;;;;8.90;2.50;;;;;;;16.18;89.99;95628.44;2049285;28;20058;-59
2022/06/24 04:55:04;;;;;;;8.38;2.10;;;;;;;16.13;90.42;95631.41;2048923;28;20544;-59
2022/06/24 04:56:05;;;;;;;4.22;2.10;;;;;;;16.15;90.89;95624.25;2040679;29;20543;-62
2022/06/24 04:57:06;;;;;;;7.32;2.00;;;;;;;16.25;90.75;95627.00;2047745;28;20063;-59
2022/06/24 04:58:08;;;;;;;7.07;1.70;;;;;;;16.28;89.73;95627.63;2056339;28;20038;-60
2022/06/24 04:59:09;;;;;;;5.13;1.85;;;;;;;16.31;90.70;95627.38;2049903;28;20050;-59